Terminal Aerodrome Forecast
Issued by NWS Louisville, KY

Home | Current Version | Previous Version | Text Only | Print | Product List | Glossary On
Versions: 1 2 3 4 5 6 7 8 9 10 11 12 13 14
000
FTUS43 KLMK 161400 AAA
TAFBWG
TAF AMD
KBWG 161427Z 1614/1712 10009KT P6SM FEW250
     FM161900 13008KT P6SM FEW250
     FM170000 VRB04KT P6SM FEW250=

USA.gov is the U.S. government's official web portal to all federal, state and local government web resources and services.